Terminal Aerodrome Forecast
Issued by NWS Duluth, MN

Home | Current Version | Previous Version | Text Only | Print | Product List | Glossary On
Versions: 1 2 3 4 5 6 7 8 9 10 11 12 13 14 15 16 17 18 19 20 21 22 23 24 25 26 27 28 29 30 31 32 33 34 35 36
000
FTUS43 KDLH 221900 AAA
TAFDLH
TAF AMD
KDLH 221923Z 2219/2318 17005KT 1SM BR OVC002
     FM222100 09008KT 2SM BR OVC004
     FM230200 07006KT 1 1/2SM BR OVC004
     FM230400 08007KT 1/4SM FG VV002
     FM231700 09009KT 4SM BR OVC004=

USA.gov is the U.S. government's official web portal to all federal, state and local government web resources and services.